Time;durP1;ratioP1;P1;durP2;ratioP2;P2;SDS_P1;SDS_P2;PMS_P1;PMS_P2;Temp;Humidity;BMP_temperature;BMP_pressure;BME280_temperature;BME280_humidity;BME280_pressure;Samples;Min_cycle;Max_cycle;Signal;HPM_P1;HPM_P2
2023/08/06 00:00:24;;;;;;;0.55;0.30;;;;;;;18.01;73.60;100488.91;5120115;27;20046;-82
2023/08/06 00:02:51;;;;;;;0.00;0.00;;;;;;;17.99;73.38;100482.78;5110990;27;20035;-83
2023/08/06 00:05:18;;;;;;;0.10;0.10;;;;;;;18.01;73.43;100475.53;5103442;28;20062;-81
2023/08/06 00:07:45;;;;;;;0.22;0.22;;;;;;;18.03;73.58;100492.38;5121103;28;20024;-81
2023/08/06 00:10:11;;;;;;;0.10;0.10;;;;;;;18.04;73.35;100477.16;5134389;28;20036;-81
2023/08/06 00:12:37;;;;;;;0.10;0.10;;;;;;;18.04;73.47;100475.31;5119369;28;20055;-83
2023/08/06 00:15:03;;;;;;;0.10;0.10;;;;;;;18.06;73.66;100475.25;5115918;28;20127;-83
2023/08/06 00:17:29;;;;;;;0.00;0.00;;;;;;;18.05;73.42;100471.69;5116178;28;20039;-83
2023/08/06 00:19:56;;;;;;;0.10;0.10;;;;;;;18.06;73.77;100473.44;5110276;28;20598;-83
2023/08/06 00:22:22;;;;;;;0.10;0.10;;;;;;;18.06;73.87;100473.44;5116672;28;20474;-83
2023/08/06 00:24:48;;;;;;;0.10;0.10;;;;;;;18.08;73.59;100476.91;5113055;28;20106;-81
2023/08/06 00:27:14;;;;;;;0.03;0.03;;;;;;;18.08;73.69;100467.97;5106092;28;20076;-82
2023/08/06 00:29:40;;;;;;;0.10;0.10;;;;;;;18.10;73.38;100482.16;5116712;28;20032;-82
2023/08/06 00:32:06;;;;;;;0.10;0.10;;;;;;;18.10;73.84;100474.13;5117414;28;20443;-83
2023/08/06 00:34:33;;;;;;;0.00;0.00;;;;;;;18.10;73.51;100474.97;5116786;28;20039;-82
2023/08/06 00:36:59;;;;;;;0.10;0.10;;;;;;;18.11;73.60;100481.22;5115756;28;20480;-82
2023/08/06 00:39:25;;;;;;;0.10;0.10;;;;;;;18.13;73.51;100473.09;5126298;27;20019;-82
2023/08/06 00:41:51;;;;;;;0.10;0.10;;;;;;;18.13;73.49;100473.09;5117722;28;20028;-82
2023/08/06 00:44:17;;;;;;;0.10;0.10;;;;;;;18.13;73.67;100473.09;5116911;28;20474;-82
2023/08/06 00:46:43;;;;;;;0.10;0.10;;;;;;;18.13;73.66;100478.44;5116618;28;20027;-82
2023/08/06 00:49:09;;;;;;;0.10;0.10;;;;;;;18.09;73.75;100472.38;5116206;28;20035;-82
2023/08/06 00:51:35;;;;;;;0.10;0.10;;;;;;;18.08;73.61;100476.91;5116619;28;20399;-82
2023/08/06 00:54:02;;;;;;;0.10;0.10;;;;;;;18.07;73.90;100475.16;5114690;28;20036;-82
2023/08/06 00:56:29;;;;;;;0.00;0.00;;;;;;;18.08;73.63;100476.03;5117073;28;20110;-82
2023/08/06 00:58:55;;;;;;;0.05;0.05;;;;;;;18.08;73.61;100476.03;5119059;28;20486;-82
2023/08/06 01:01:22;;;;;;;0.10;0.10;;;;;;;18.09;73.69;100478.63;5116193;28;20480;-82
2023/08/06 01:03:48;;;;;;;0.10;0.10;;;;;;;18.11;73.66;100478.53;5115842;28;20031;-82
2023/08/06 01:06:19;;;;;;;0.10;0.10;;;;;;;18.14;73.47;100474.81;5107267;28;20432;-82
2023/08/06 01:08:56;;;;;;;0.10;0.10;;;;;;;18.16;73.71;100479.13;5115681;28;20024;-82
2023/08/06 01:11:51;;;;;;;0.00;0.00;;;;;;;18.21;73.71;100473.50;5115607;28;20031;-82
2023/08/06 01:14:33;;;;;;;0.10;0.10;;;;;;;18.19;73.50;100472.72;5126353;27;20382;-83
2023/08/06 01:17:01;;;;;;;0.10;0.10;;;;;;;18.14;73.64;100474.81;5111786;28;20443;-82
2023/08/06 01:19:27;;;;;;;0.10;0.10;;;;;;;18.13;73.64;100467.72;5114331;28;20049;-83
2023/08/06 01:21:53;;;;;;;0.10;0.10;;;;;;;18.13;74.05;100473.09;5112955;28;20030;-83
2023/08/06 01:24:19;;;;;;;0.10;0.10;;;;;;;18.12;73.79;100466.88;5117114;28;20027;-83
2023/08/06 01:26:59;;;;;;;0.10;0.10;;;;;;;18.16;73.84;100464.88;5113470;28;20032;-83
2023/08/06 01:29:34;;;;;;;0.10;0.10;;;;;;;18.18;73.66;100465.63;5110878;28;20036;-83
2023/08/06 01:32:05;;;;;;;0.10;0.10;;;;;;;18.17;73.58;100471.94;5119635;28;20038;-83
2023/08/06 01:34:34;;;;;;;0.10;0.10;;;;;;;18.15;73.88;100466.69;5117371;28;20024;-83
2023/08/06 01:37:01;;;;;;;0.10;0.10;;;;;;;18.13;73.84;100463.25;5117343;28;20102;-83
2023/08/06 01:39:27;;;;;;;0.10;0.10;;;;;;;18.13;73.76;100473.97;5116300;28;20034;-82
2023/08/06 01:41:53;;;;;;;0.10;0.10;;;;;;;18.10;73.77;100469.63;5116443;28;20050;-83
2023/08/06 01:44:19;;;;;;;0.10;0.10;;;;;;;18.09;73.74;100467.91;5115257;28;20024;-83
2023/08/06 01:46:45;;;;;;;0.10;0.10;;;;;;;18.09;73.75;100472.38;5117016;28;20444;-83
2023/08/06 01:49:11;;;;;;;0.10;0.10;;;;;;;18.09;73.85;100472.38;5117062;28;20030;-83
2023/08/06 01:51:37;;;;;;;0.15;0.15;;;;;;;18.09;73.94;100477.75;5117710;28;20083;-83
2023/08/06 01:54:04;;;;;;;0.10;0.10;;;;;;;18.10;73.74;100485.69;5115858;28;20028;-82
2023/08/06 01:56:30;;;;;;;0.00;0.00;;;;;;;18.10;73.73;100485.69;5117493;28;20114;-83
2023/08/06 01:58:56;;;;;;;0.10;0.10;;;;;;;18.10;73.89;100488.38;5117282;28;20023;-83
2023/08/06 02:01:22;;;;;;;0.10;0.10;;;;;;;18.10;73.90;100490.22;5116734;28;20024;-83
2023/08/06 02:03:48;;;;;;;0.10;0.10;;;;;;;18.11;73.86;100497.31;5116962;28;20055;-83
2023/08/06 02:06:14;;;;;;;0.20;0.20;;;;;;;18.10;73.81;100499.09;5117530;28;20478;-83
2023/08/06 02:08:40;;;;;;;0.15;0.15;;;;;;;18.11;73.82;100498.16;5116827;28;20028;-83
2023/08/06 02:11:06;;;;;;;0.10;0.10;;;;;;;18.13;73.97;100491.84;5116607;28;20043;-83
2023/08/06 02:13:32;;;;;;;0.10;0.10;;;;;;;18.14;73.78;100501.63;5115949;28;20031;-83
2023/08/06 02:15:58;;;;;;;0.10;0.10;;;;;;;18.15;73.84;100496.16;5116254;28;20439;-83
2023/08/06 02:18:24;;;;;;;0.10;0.10;;;;;;;18.14;73.85;100493.59;5115601;28;20065;-83
2023/08/06 02:20:58;;;;;;;0.10;0.10;;;;;;;18.18;73.84;100493.34;5116718;28;20051;-82
2023/08/06 02:23:26;;;;;;;0.10;0.10;;;;;;;18.15;73.66;100493.50;5104050;28;20095;-83
2023/08/06 02:25:58;;;;;;;0.10;0.10;;;;;;;18.18;73.72;100497.81;5116173;28;20042;-83
2023/08/06 02:28:24;;;;;;;0.20;0.20;;;;;;;18.14;73.76;100490.91;5115958;28;20015;-83
2023/08/06 02:30:51;;;;;;;0.10;0.10;;;;;;;18.13;73.82;100503.47;5116062;28;20059;-83
2023/08/06 02:33:20;;;;;;;0.17;0.17;;;;;;;18.14;73.78;100497.13;5115677;28;20030;-82
2023/08/06 02:35:47;;;;;;;0.10;0.10;;;;;;;18.13;73.74;100497.22;5115626;27;20034;-83
2023/08/06 02:38:13;;;;;;;0.10;0.10;;;;;;;18.11;73.97;100506.19;5116447;28;20031;-83
2023/08/06 02:40:46;;;;;;;0.05;0.05;;;;;;;18.15;73.78;100504.22;5116597;28;20092;-83
2023/08/06 02:43:13;;;;;;;0.17;0.17;;;;;;;18.09;73.78;100504.56;5115540;28;20439;-83
2023/08/06 02:45:39;;;;;;;0.10;0.10;;;;;;;18.09;73.72;100505.44;5116829;28;20071;-83
2023/08/06 02:48:06;;;;;;;0.10;0.10;;;;;;;18.07;73.71;100504.66;5116443;28;20405;-83
2023/08/06 02:50:37;;;;;;;0.28;0.28;;;;;;;18.08;73.91;100503.72;5117195;28;20042;-81
2023/08/06 02:53:03;;;;;;;0.10;0.10;;;;;;;18.07;73.83;100501.97;5114231;28;20028;-83
2023/08/06 02:55:29;;;;;;;0.10;0.10;;;;;;;18.07;73.57;100503.81;5115461;28;20023;-83
2023/08/06 02:57:55;;;;;;;0.10;0.10;;;;;;;18.07;73.76;100507.34;5116228;28;20040;-83
2023/08/06 03:00:21;;;;;;;0.10;0.10;;;;;;;18.06;73.79;100502.91;5116642;28;20047;-83
2023/08/06 03:02:47;;;;;;;0.10;0.10;;;;;;;18.04;73.52;100504.81;5119089;28;20059;-81
2023/08/06 03:05:13;;;;;;;0.10;0.10;;;;;;;18.01;74.27;100507.69;5136466;27;20016;-83
2023/08/06 03:07:40;;;;;;;0.10;0.10;;;;;;;18.00;74.10;100497.91;5128375;28;20051;-82
2023/08/06 03:10:06;;;;;;;0.10;0.10;;;;;;;18.01;74.10;100496.97;5112940;28;20027;-81
2023/08/06 03:12:32;;;;;;;0.10;0.10;;;;;;;18.00;74.31;100495.22;5114606;28;20073;-82
2023/08/06 03:14:58;;;;;;;0.10;0.10;;;;;;;17.99;74.41;100504.22;5114900;28;20031;-82
2023/08/06 03:17:24;;;;;;;0.10;0.10;;;;;;;17.99;73.93;100498.84;5117565;28;20035;-83
2023/08/06 03:19:50;;;;;;;0.17;0.17;;;;;;;17.97;73.97;100499.91;5116881;28;20027;-82
2023/08/06 03:22:16;;;;;;;0.10;0.10;;;;;;;17.91;74.39;100491.22;5115962;28;20102;-82
2023/08/06 03:24:42;;;;;;;1.02;0.85;;;;;;;17.91;74.30;100501.09;5110880;28;20043;-83
2023/08/06 03:27:08;;;;;;;0.32;0.32;;;;;;;17.88;74.62;100503.94;5107156;28;20035;-83
2023/08/06 03:29:35;;;;;;;0.15;0.15;;;;;;;17.84;74.70;100505.06;5116755;27;20027;-82
2023/08/06 03:32:01;;;;;;;0.10;0.10;;;;;;;17.85;74.70;100501.44;5107717;28;20482;-82
2023/08/06 03:34:27;;;;;;;0.10;0.10;;;;;;;17.82;74.98;100501.59;5100422;28;20114;-83
2023/08/06 03:36:53;;;;;;;0.10;0.10;;;;;;;17.80;75.02;100501.69;5106475;28;20512;-83
2023/08/06 03:39:19;;;;;;;16.45;0.73;;;;;;;17.76;74.94;100503.66;5102578;28;20081;-83
2023/08/06 03:41:45;;;;;;;0.10;0.10;;;;;;;17.77;74.92;100505.41;5101494;28;20036;-83
2023/08/06 03:44:11;;;;;;;0.30;0.30;;;;;;;17.77;74.30;100508.09;5101516;28;20127;-83
2023/08/06 03:46:37;;;;;;;0.00;0.00;;;;;;;17.76;75.05;100505.50;5104592;28;21697;-82
2023/08/06 03:49:03;;;;;;;0.30;0.30;;;;;;;17.77;74.82;100507.22;5103094;28;20032;-82
2023/08/06 03:51:29;;;;;;;0.10;0.10;;;;;;;17.77;74.95;100509.91;5104077;28;20043;-83
2023/08/06 03:53:55;;;;;;;0.10;0.10;;;;;;;17.75;74.92;100501.94;5101247;28;20115;-81
2023/08/06 03:56:22;;;;;;;0.10;0.10;;;;;;;17.73;75.09;100509.22;5103576;28;20107;-82
2023/08/06 03:58:48;;;;;;;0.10;0.10;;;;;;;17.72;75.06;100512.84;5101379;28;20500;-83
2023/08/06 04:01:14;;;;;;;0.47;0.47;;;;;;;17.72;75.37;100511.94;5102254;28;20103;-82
2023/08/06 04:03:40;;;;;;;0.10;0.10;;;;;;;17.73;75.30;100508.31;5102620;28;20413;-82
2023/08/06 04:06:07;;;;;;;0.10;0.10;;;;;;;17.73;75.30;100513.69;5102025;28;20417;-82
2023/08/06 04:08:33;;;;;;;0.10;0.10;;;;;;;17.72;75.37;100523.56;5102114;28;20544;-82
2023/08/06 04:10:59;;;;;;;0.15;0.15;;;;;;;17.71;75.62;100527.19;5102200;28;20036;-83
2023/08/06 04:13:25;;;;;;;0.10;0.10;;;;;;;17.49;76.33;100534.66;5102328;28;20039;-82
2023/08/06 04:15:51;;;;;;;0.65;0.65;;;;;;;17.42;75.42;100536.78;5102930;28;20032;-82
2023/08/06 04:18:17;;;;;;;0.20;0.20;;;;;;;17.17;74.85;100555.97;5107299;28;20023;-82
2023/08/06 04:20:45;;;;;;;0.10;0.10;;;;;;;16.93;74.35;100557.16;5106800;28;20028;-82
2023/08/06 04:23:11;;;;;;;0.10;0.10;;;;;;;16.57;74.11;100568.72;5116116;28;20506;-81
2023/08/06 04:25:37;;;;;;;0.10;0.10;;;;;;;16.34;74.90;100559.19;5110928;28;20028;-80
2023/08/06 04:28:03;;;;;;;0.20;0.20;;;;;;;16.33;74.93;100568.13;5104497;28;20028;-80
2023/08/06 04:30:29;;;;;;;0.10;0.10;;;;;;;16.25;75.54;100571.19;5105972;28;20106;-80
2023/08/06 04:32:58;;;;;;;0.10;0.10;;;;;;;16.19;75.74;100582.16;5113223;28;20046;-79
2023/08/06 04:35:24;;;;;;;0.10;0.10;;;;;;;16.12;75.96;100576.22;5117282;28;20540;-80
2023/08/06 04:37:50;;;;;;;0.10;0.10;;;;;;;16.05;76.14;100580.16;5102154;28;20139;-81
2023/08/06 04:40:16;;;;;;;0.10;0.10;;;;;;;15.96;76.94;100585.91;5107939;28;20038;-81
2023/08/06 04:42:42;;;;;;;21.58;1.27;;;;;;;15.99;76.69;100591.13;5116874;28;20035;-80
2023/08/06 04:45:09;;;;;;;0.10;0.10;;;;;;;15.98;76.48;100594.75;5116878;28;20085;-82
2023/08/06 04:47:35;;;;;;;0.52;0.52;;;;;;;15.99;76.93;100600.00;5106526;28;20376;-81
2023/08/06 04:50:01;;;;;;;0.10;0.10;;;;;;;16.04;76.71;100594.44;5111642;28;20036;-81
2023/08/06 04:52:28;;;;;;;0.10;0.10;;;;;;;16.08;76.92;100587.16;5116684;28;20573;-81
2023/08/06 04:54:54;;;;;;;0.10;0.10;;;;;;;16.02;77.69;100585.63;5117432;28;20024;-79
2023/08/06 04:57:21;;;;;;;0.20;0.20;;;;;;;16.09;77.11;100602.25;5120577;28;20024;-81
2023/08/06 04:59:47;;;;;;;0.10;0.10;;;;;;;16.10;77.14;100587.94;5123772;28;20031;-80
2023/08/06 05:02:13;;;;;;;0.10;0.10;;;;;;;16.08;76.87;100592.50;5110728;28;20027;-81
2023/08/06 05:04:39;;;;;;;0.30;0.30;;;;;;;15.94;76.97;100598.50;5120959;28;20032;-81
2023/08/06 05:07:06;;;;;;;0.10;0.10;;;;;;;15.94;77.06;100598.50;5118519;28;20028;-81
2023/08/06 05:09:32;;;;;;;0.20;0.20;;;;;;;15.89;76.92;100596.03;5112583;28;20095;-81
2023/08/06 05:12:01;;;;;;;0.75;0.45;;;;;;;15.84;77.26;100595.38;5118015;28;20081;-80
2023/08/06 05:14:27;;;;;;;0.10;0.10;;;;;;;15.96;76.71;100601.94;5119646;28;20019;-81
2023/08/06 05:16:53;;;;;;;0.63;0.63;;;;;;;15.97;76.66;100598.34;5110032;28;20091;-80
2023/08/06 05:19:19;;;;;;;0.10;0.10;;;;;;;15.96;76.54;100601.94;5122088;27;20028;-81
2023/08/06 05:21:45;;;;;;;0.30;0.30;;;;;;;15.99;76.53;100607.16;5125833;27;20031;-81
2023/08/06 05:24:12;;;;;;;0.10;0.10;;;;;;;15.95;76.44;100610.91;5114503;27;20091;-81
2023/08/06 05:26:38;;;;;;;0.32;0.32;;;;;;;15.95;76.85;100614.44;5115838;28;20047;-81
2023/08/06 05:29:04;;;;;;;0.20;0.20;;;;;;;15.96;76.43;100628.66;5109247;28;20040;-80
2023/08/06 05:31:30;;;;;;;0.10;0.10;;;;;;;15.96;76.64;100624.22;5108669;28;21625;-81
2023/08/06 05:33:56;;;;;;;0.30;0.30;;;;;;;15.93;76.50;100634.16;5110229;28;20066;-81
2023/08/06 05:36:22;;;;;;;7.97;0.73;;;;;;;16.00;76.27;100635.63;5109472;28;20035;-80
2023/08/06 05:38:48;;;;;;;0.20;0.20;;;;;;;15.98;76.59;100649.03;5110748;28;20491;-81
2023/08/06 05:41:14;;;;;;;0.10;0.10;;;;;;;16.01;76.52;100648.91;5112043;28;20039;-81
2023/08/06 05:43:40;;;;;;;0.10;0.10;;;;;;;15.98;77.28;100657.06;5107152;28;20028;-80
2023/08/06 05:46:06;;;;;;;0.10;0.10;;;;;;;16.04;76.99;100652.34;5114186;28;20114;-80
2023/08/06 05:48:33;;;;;;;0.30;0.30;;;;;;;16.08;77.33;100659.31;5110159;28;20085;-79
2023/08/06 05:50:59;;;;;;;0.10;0.10;;;;;;;16.07;77.50;100660.25;5105963;28;20032;-80
2023/08/06 05:53:25;;;;;;;0.57;0.57;;;;;;;16.21;77.28;100670.31;5107986;28;20105;-81
2023/08/06 05:55:51;;;;;;;0.10;0.10;;;;;;;16.19;77.53;100673.06;5110081;28;20031;-81
2023/08/06 05:58:19;;;;;;;0.17;0.17;;;;;;;16.24;77.69;100668.34;5115871;28;20028;-79
2023/08/06 06:00:45;;;;;;;0.17;0.17;;;;;;;16.28;77.48;100674.44;5123959;28;20043;-79
2023/08/06 06:03:12;;;;;;;0.20;0.20;;;;;;;16.33;77.01;100669.72;5114063;28;20042;-81
2023/08/06 06:05:39;;;;;;;0.10;0.10;;;;;;;16.29;77.26;100676.16;5109120;28;20096;-81
2023/08/06 06:08:05;;;;;;;0.10;0.10;;;;;;;16.35;76.95;100673.22;5106607;28;20486;-80
2023/08/06 06:10:31;;;;;;;0.10;0.10;;;;;;;16.37;77.09;100675.81;5108265;28;20058;-80
2023/08/06 06:12:57;;;;;;;0.28;0.28;;;;;;;16.39;76.69;100677.47;5111641;28;20045;-78
2023/08/06 06:15:23;;;;;;;0.10;0.10;;;;;;;16.42;76.76;100688.00;5108833;28;20125;-81
2023/08/06 06:17:49;;;;;;;0.05;0.05;;;;;;;16.44;76.79;100690.63;5122444;28;20023;-79
2023/08/06 06:20:15;;;;;;;0.10;0.10;;;;;;;16.47;76.50;100690.47;5118177;28;20054;-79
2023/08/06 06:22:41;;;;;;;0.30;0.30;;;;;;;16.42;76.73;100697.84;5118897;28;20057;-79
2023/08/06 06:25:08;;;;;;;0.98;0.98;;;;;;;16.33;76.60;100699.13;5120614;28;20087;-80
2023/08/06 06:27:34;;;;;;;0.10;0.10;;;;;;;16.31;76.63;100703.69;5122305;28;20040;-79
2023/08/06 06:30:00;;;;;;;2.10;0.45;;;;;;;16.32;76.56;100708.09;5127877;28;20015;-78
2023/08/06 06:32:26;;;;;;;0.30;0.30;;;;;;;16.33;76.49;100708.00;5118810;28;20031;-79
2023/08/06 06:34:54;;;;;;;0.10;0.10;;;;;;;16.33;76.63;100717.84;5116268;28;20027;-79
2023/08/06 06:37:20;;;;;;;0.10;0.10;;;;;;;16.37;76.51;100714.09;5117971;27;20034;-81
2023/08/06 06:39:46;;;;;;;0.20;0.20;;;;;;;16.38;76.40;100710.47;5131149;27;20032;-79
2023/08/06 06:42:12;;;;;;;0.10;0.10;;;;;;;16.37;77.18;100721.25;5134063;27;20142;-79
2023/08/06 06:44:38;;;;;;;6.72;0.75;;;;;;;16.41;76.90;100726.41;5132069;27;20030;-79
2023/08/06 06:47:04;;;;;;;0.10;0.10;;;;;;;16.45;76.82;100727.97;5128434;27;20044;-79
2023/08/06 06:49:30;;;;;;;0.10;0.10;;;;;;;16.46;76.76;100726.16;5123573;28;20058;-80
2023/08/06 06:51:56;;;;;;;0.17;0.17;;;;;;;16.56;76.43;100729.28;5127482;27;20084;-79
2023/08/06 06:54:22;;;;;;;0.10;0.10;;;;;;;16.53;77.01;100730.28;5133724;27;20031;-80
2023/08/06 06:56:48;;;;;;;0.15;0.15;;;;;;;16.58;77.14;100738.09;5130787;27;20082;-81
2023/08/06 06:59:14;;;;;;;0.30;0.30;;;;;;;16.59;76.92;100729.16;5123481;27;20031;-81
2023/08/06 07:01:40;;;;;;;0.10;0.10;;;;;;;16.62;76.90;100734.34;5119635;28;20036;-81
2023/08/06 07:04:06;;;;;;;0.30;0.30;;;;;;;16.59;77.39;100739.84;5111165;28;20031;-81
2023/08/06 07:06:33;;;;;;;0.10;0.10;;;;;;;16.67;77.16;100737.66;5113576;27;20055;-81
2023/08/06 07:08:59;;;;;;;0.10;0.10;;;;;;;16.72;76.97;100740.13;5115777;27;20612;-80
2023/08/06 07:11:25;;;;;;;0.20;0.20;;;;;;;16.76;76.93;100734.56;5124461;27;20027;-81
2023/08/06 07:13:58;;;;;;;0.25;0.25;;;;;;;16.76;77.40;100742.59;5118917;27;20094;-81
2023/08/06 07:16:25;;;;;;;0.10;0.10;;;;;;;16.78;77.08;100738.00;5124791;27;20047;-81
2023/08/06 07:18:54;;;;;;;0.10;0.10;;;;;;;16.85;77.18;100745.75;5118657;27;20077;-81
2023/08/06 07:21:20;;;;;;;0.10;0.10;;;;;;;16.83;77.21;100740.47;5107882;27;20031;-81
2023/08/06 07:23:49;;;;;;;0.10;0.10;;;;;;;16.84;77.39;100746.72;5114376;27;21061;-82
2023/08/06 07:26:16;;;;;;;0.10;0.10;;;;;;;16.89;77.12;100744.69;5118576;27;20459;-82
2023/08/06 07:28:42;;;;;;;0.17;0.17;;;;;;;16.80;77.75;100748.66;5115941;27;20458;-82
2023/08/06 07:31:08;;;;;;;0.10;0.10;;;;;;;16.84;77.29;100760.09;5116342;27;20094;-82
2023/08/06 07:33:34;;;;;;;0.10;0.10;;;;;;;16.84;77.46;100752.06;5112849;27;20066;-81
2023/08/06 07:36:07;;;;;;;0.10;0.10;;;;;;;16.82;77.42;100755.69;5116433;28;20061;-81
2023/08/06 07:38:33;;;;;;;;;;;;;;;17.08;76.64;100758.06;5110230;27;20036;-81
2023/08/06 07:41:02;;;;;;;0.10;0.10;;;;;;;16.97;77.28;100758.56;5121347;27;20390;-81
2023/08/06 07:43:28;;;;;;;0.10;0.10;;;;;;;17.03;77.00;100760.97;5118568;28;20054;-79
2023/08/06 07:45:57;;;;;;;0.10;0.10;;;;;;;17.04;77.14;100768.06;5108796;27;20115;-83
2023/08/06 07:48:23;;;;;;;0.10;0.10;;;;;;;17.08;76.91;100761.59;5115504;28;20145;-81
2023/08/06 07:50:53;;;;;;;0.82;0.82;;;;;;;17.12;76.95;100760.53;5116703;27;20040;-82
2023/08/06 07:53:20;;;;;;;0.10;0.10;;;;;;;17.11;76.70;100771.31;5118670;27;20031;-81
2023/08/06 07:55:50;;;;;;;0.50;0.50;;;;;;;17.11;76.73;100765.97;5117280;27;20095;-82
2023/08/06 07:58:16;;;;;;;0.10;0.10;;;;;;;17.09;76.44;100770.53;5116539;27;21291;-82
2023/08/06 08:00:45;;;;;;;0.10;0.10;;;;;;;17.14;76.35;100769.34;5119943;27;20069;-81
2023/08/06 08:03:13;;;;;;;0.25;0.25;;;;;;;17.08;76.32;100774.97;5105584;28;20031;-81
2023/08/06 08:05:39;;;;;;;0.20;0.20;;;;;;;17.01;76.32;100768.22;5081444;28;20575;-81
2023/08/06 08:08:05;;;;;;;0.10;0.10;;;;;;;17.05;76.20;100771.63;5102964;28;20024;-82
2023/08/06 08:10:32;;;;;;;0.10;0.10;;;;;;;17.08;76.15;100768.78;5107503;28;20032;-82
2023/08/06 08:12:58;;;;;;;0.47;0.47;;;;;;;17.14;76.05;100769.34;5104700;28;20024;-81
2023/08/06 08:15:26;;;;;;;0.40;0.40;;;;;;;17.20;76.13;100767.31;5107746;28;20027;-82
2023/08/06 08:17:52;;;;;;;0.10;0.10;;;;;;;17.14;76.00;100769.34;5111725;28;20055;-82
2023/08/06 08:20:18;;;;;;;0.10;0.10;;;;;;;17.23;75.91;100767.16;5110476;28;20451;-82
2023/08/06 08:22:44;;;;;;;0.10;0.10;;;;;;;17.29;75.82;100774.91;5106932;28;20051;-82
2023/08/06 08:25:11;;;;;;;0.10;0.10;;;;;;;17.32;75.87;100769.41;5113642;28;20110;-82
2023/08/06 08:27:37;;;;;;;0.30;0.30;;;;;;;17.40;75.79;100777.06;5111906;28;20025;-81
2023/08/06 08:30:03;;;;;;;0.10;0.10;;;;;;;17.42;75.78;100778.72;5112930;28;20103;-82
2023/08/06 08:32:30;;;;;;;0.10;0.10;;;;;;;17.43;75.33;100790.28;5115853;28;20051;-82
2023/08/06 08:34:56;;;;;;;0.10;0.10;;;;;;;17.45;75.25;100783.03;5113386;27;20035;-82
2023/08/06 08:37:24;;;;;;;0.10;0.10;;;;;;;17.40;74.62;100785.09;5113708;27;20067;-81
2023/08/06 08:39:50;;;;;;;0.10;0.10;;;;;;;17.50;74.94;100781.00;5118827;28;20072;-82
2023/08/06 08:42:16;;;;;;;0.10;0.10;;;;;;;17.46;74.42;100782.09;5112704;28;20494;-82
2023/08/06 08:44:43;;;;;;;0.10;0.10;;;;;;;17.50;74.37;100794.38;5113491;28;20039;-82
2023/08/06 08:47:10;;;;;;;0.10;0.10;;;;;;;17.54;74.13;100789.75;5110934;27;20028;-81
2023/08/06 08:49:37;;;;;;;0.10;0.10;;;;;;;17.58;73.90;100788.63;5113081;28;20023;-82
2023/08/06 08:52:06;;;;;;;0.10;0.10;;;;;;;17.62;73.67;100792.91;5118498;27;20053;-82
2023/08/06 08:54:34;;;;;;;0.10;0.10;;;;;;;17.65;73.52;100790.06;5137328;28;20026;-81
2023/08/06 08:57:00;;;;;;;0.10;0.10;;;;;;;17.72;73.67;100791.50;5131606;28;20028;-82
2023/08/06 08:59:27;;;;;;;0.10;0.10;;;;;;;17.68;73.34;100795.25;5116838;28;20030;-83
2023/08/06 09:01:54;;;;;;;0.10;0.10;;;;;;;17.81;73.33;100798.19;5119391;27;20035;-82
2023/08/06 09:04:21;;;;;;;0.03;0.03;;;;;;;17.79;73.58;100803.66;5117695;27;20055;-82
2023/08/06 09:06:50;;;;;;;0.10;0.10;;;;;;;17.91;73.22;100807.50;5117485;27;20024;-82
2023/08/06 09:09:31;;;;;;;0.10;0.10;;;;;;;18.04;73.27;100813.13;5121375;28;20499;-82
2023/08/06 09:12:02;;;;;;;0.10;0.10;;;;;;;17.95;72.97;100813.59;5118643;27;20066;-81
2023/08/06 09:14:28;;;;;;;0.10;0.10;;;;;;;17.98;72.77;100804.53;5114748;28;20035;-80
2023/08/06 09:16:57;;;;;;;0.00;0.00;;;;;;;17.95;72.87;100808.25;5118995;28;20477;-81
2023/08/06 09:19:23;;;;;;;0.10;0.10;;;;;;;18.02;73.02;100811.47;5123503;27;20054;-80
2023/08/06 09:21:52;;;;;;;0.10;0.10;;;;;;;18.10;72.86;100810.13;5120923;28;20501;-81
2023/08/06 09:24:18;;;;;;;0.10;0.10;;;;;;;18.16;72.83;100816.13;5123703;28;20028;-81
2023/08/06 09:26:45;;;;;;;0.10;0.10;;;;;;;18.23;72.54;100817.53;5126203;28;20040;-81
2023/08/06 09:29:11;;;;;;;0.10;0.10;;;;;;;18.25;71.18;100815.63;5120801;28;20034;-81
2023/08/06 09:31:47;;;;;;;0.10;0.10;;;;;;;18.51;72.13;100833.03;5126168;28;20123;-81
2023/08/06 09:34:18;;;;;;;0.10;0.10;;;;;;;18.54;71.10;100826.63;5125563;28;20114;-80
2023/08/06 09:36:47;;;;;;;0.10;0.10;;;;;;;18.70;71.38;100826.66;5127500;28;20095;-81
2023/08/06 09:39:16;;;;;;;0.10;0.10;;;;;;;18.77;71.13;100830.75;5129012;28;20434;-81
2023/08/06 09:41:42;;;;;;;0.85;0.85;;;;;;;19.05;71.07;100826.56;5119849;27;20114;-80
2023/08/06 09:44:18;;;;;;;4.68;0.95;;;;;;;19.26;70.56;100835.22;5122140;28;20023;-79
2023/08/06 09:46:49;;;;;;;0.10;0.10;;;;;;;19.39;70.01;100838.09;5127770;28;20028;-81
2023/08/06 09:49:15;;;;;;;0.10;0.10;;;;;;;19.48;68.43;100842.09;5124513;28;20027;-79
2023/08/06 09:51:42;;;;;;;0.13;0.13;;;;;;;19.59;68.45;100852.19;5126115;28;20027;-81
2023/08/06 09:54:12;;;;;;;2.40;0.55;;;;;;;19.62;68.13;100850.19;5124003;28;20024;-81
2023/08/06 09:56:38;;;;;;;0.10;0.10;;;;;;;19.56;66.76;100853.25;5116874;28;20032;-81
2023/08/06 09:59:06;;;;;;;0.10;0.10;;;;;;;19.60;66.94;100864.69;5126404;28;20061;-81
2023/08/06 10:01:34;;;;;;;0.10;0.10;;;;;;;19.50;66.03;100858.97;5124072;28;20049;-81
2023/08/06 10:04:04;;;;;;;0.10;0.10;;;;;;;19.52;67.19;100854.38;5119315;28;20051;-80
2023/08/06 10:06:36;;;;;;;0.10;0.10;;;;;;;19.55;66.01;100862.25;5127256;28;20059;-80
2023/08/06 10:09:03;;;;;;;0.10;0.10;;;;;;;19.42;65.99;100874.69;5117852;27;20043;-81
2023/08/06 10:11:30;;;;;;;0.85;0.65;;;;;;;19.45;65.83;100872.69;5120126;28;20035;-78
2023/08/06 10:14:21;;;;;;;0.10;0.10;;;;;;;19.52;66.19;100867.81;5123939;28;20051;-81
2023/08/06 10:16:48;;;;;;;0.10;0.10;;;;;;;19.51;66.64;100874.13;5125100;28;20031;-80
2023/08/06 10:19:16;;;;;;;0.10;0.10;;;;;;;19.49;65.47;100873.34;5122763;28;20027;-81
2023/08/06 10:22:02;;;;;;;0.10;0.10;;;;;;;19.57;66.45;100865.72;5124206;28;20027;-81
2023/08/06 10:24:44;;;;;;;1.88;0.68;;;;;;;19.72;65.51;100864.81;5124280;28;20031;-82
2023/08/06 10:27:11;;;;;;;0.10;0.10;;;;;;;19.71;62.71;100859.53;5121033;28;20043;-81
2023/08/06 10:29:38;;;;;;;0.10;0.10;;;;;;;19.75;62.12;100863.81;5122779;28;20105;-81
2023/08/06 10:32:05;;;;;;;0.10;0.10;;;;;;;19.83;63.22;100866.94;5121366;28;20105;-81
2023/08/06 10:35:00;;;;;;;0.10;0.10;;;;;;;19.77;63.13;100877.16;5111482;28;20044;-79
2023/08/06 10:37:45;;;;;;;0.10;0.10;;;;;;;19.68;62.03;100876.72;5124164;28;20042;-82
2023/08/06 10:40:20;;;;;;;0.10;0.10;;;;;;;19.69;63.09;100874.91;5121526;28;20035;-82
2023/08/06 10:42:46;;;;;;;0.60;0.40;;;;;;;19.68;62.10;100874.03;5124814;28;20032;-81
2023/08/06 10:47:48;;;;;;;1.98;1.85;;;;;;;19.73;61.78;100877.31;5117607;27;20410;-82
2023/08/06 10:50:17;;;;;;;0.57;0.57;;;;;;;19.96;63.24;100875.16;5106860;28;20039;-82
2023/08/06 10:52:46;;;;;;;0.20;0.20;;;;;;;20.13;60.20;100873.28;5109724;28;20043;-82
2023/08/06 10:55:13;;;;;;;0.10;0.10;;;;;;;20.32;60.49;100878.41;5098846;28;20028;-81
2023/08/06 10:57:40;;;;;;;0.10;0.10;;;;;;;20.39;59.72;100869.00;5091049;28;20051;-82
2023/08/06 11:00:08;;;;;;;0.10;0.10;;;;;;;20.32;58.46;100884.66;5093314;28;20495;-83
2023/08/06 11:02:36;;;;;;;0.10;0.10;;;;;;;20.37;58.35;100876.31;5093923;28;20073;-82
2023/08/06 11:05:11;;;;;;;0.10;0.10;;;;;;;20.52;59.27;100877.19;5086153;28;20537;-82
2023/08/06 11:07:38;;;;;;;0.10;0.10;;;;;;;20.67;59.39;100876.25;5083780;28;20025;-85
2023/08/06 11:10:06;;;;;;;0.57;0.57;;;;;;;20.76;57.86;100874.84;5092786;28;20039;-84
2023/08/06 11:12:33;;;;;;;0.10;0.10;;;;;;;20.68;55.82;100880.66;5093623;28;20025;-82
2023/08/06 11:14:59;;;;;;;0.10;0.10;;;;;;;20.81;56.39;100880.81;5087197;28;20051;-82
2023/08/06 11:17:27;;;;;;;0.10;0.10;;;;;;;20.61;54.36;100876.63;5095647;28;20066;-83
2023/08/06 11:19:54;;;;;;;0.40;0.40;;;;;;;20.59;54.80;100878.56;5091603;28;20063;-83
2023/08/06 11:22:21;;;;;;;0.30;0.30;;;;;;;20.62;56.34;100885.56;5092480;28;20104;-82
2023/08/06 11:24:48;;;;;;;0.10;0.10;;;;;;;20.38;53.69;100877.19;5095857;28;20028;-83
2023/08/06 11:27:16;;;;;;;0.00;0.00;;;;;;;20.63;55.41;100877.38;5097731;28;20094;-82